Time;durP1;ratioP1;P1;durP2;ratioP2;P2;SDS_P1;SDS_P2;PMS_P1;PMS_P2;Temp;Humidity;BMP_temperature;BMP_pressure;BME280_temperature;BME280_humidity;BME280_pressure;Samples;Min_cycle;Max_cycle;Signal;HPM_P1;HPM_P2
2023/11/10 00:00:37;;;;;;;38.90;26.92;;;9.50;99.90;;;;;;5052258;28;20029;-53
2023/11/10 00:03:02;;;;;;;46.95;31.33;;;9.50;99.90;;;;;;5052168;28;20037;-51
2023/11/10 00:05:29;;;;;;;56.25;35.25;;;9.50;99.90;;;;;;5051982;28;20114;-54
2023/11/10 00:07:56;;;;;;;71.18;45.08;;;9.70;99.90;;;;;;5052362;28;20464;-54
2023/11/10 00:10:23;;;;;;;46.63;29.45;;;9.80;99.90;;;;;;5046522;28;20041;-53
2023/11/10 00:12:49;;;;;;;58.72;37.45;;;9.80;99.90;;;;;;5016166;28;20041;-53
2023/11/10 00:15:14;;;;;;;48.28;33.13;;;9.70;99.90;;;;;;5051708;28;20094;-56
2023/11/10 00:17:40;;;;;;;38.58;27.92;;;9.70;99.90;;;;;;5052154;28;20029;-53
2023/11/10 00:20:11;;;;;;;34.75;25.98;;;9.70;99.90;;;;;;4967823;28;20037;-54
2023/11/10 00:22:38;;;;;;;30.58;24.17;;;9.60;99.90;;;;;;5052545;28;20427;-54
2023/11/10 00:25:05;;;;;;;37.40;28.10;;;9.50;99.90;;;;;;5051676;28;20041;-53
2023/11/10 00:27:32;;;;;;;43.15;30.08;;;9.40;99.90;;;;;;5000345;28;20069;-55
2023/11/10 00:29:58;;;;;;;40.25;27.83;;;9.50;99.90;;;;;;5051859;28;20102;-55
2023/11/10 00:32:25;;;;;;;69.72;34.33;;;9.50;99.90;;;;;;5000400;28;20493;-56
2023/11/10 00:34:51;;;;;;;46.72;30.55;;;8.90;99.90;;;;;;5051933;28;20147;-55
2023/11/10 00:37:17;;;;;;;32.75;21.63;;;8.50;99.90;;;;;;5051811;28;20504;-55
2023/11/10 00:39:43;;;;;;;27.80;20.08;;;8.60;99.90;;;;;;5052180;28;20029;-53
2023/11/10 00:42:09;;;;;;;24.02;17.58;;;8.60;99.90;;;;;;5016475;28;20132;-56
2023/11/10 00:44:35;;;;;;;28.00;17.60;;;8.80;99.90;;;;;;5051822;28;20033;-55
2023/11/10 00:47:01;;;;;;;46.00;28.10;;;8.90;99.90;;;;;;5051847;28;20029;-54
2023/11/10 00:49:27;;;;;;;44.65;28.45;;;8.70;99.90;;;;;;5000131;28;20132;-55
2023/11/10 00:51:53;;;;;;;47.53;29.80;;;8.90;99.90;;;;;;5016399;28;20118;-55
2023/11/10 00:54:19;;;;;;;89.88;48.25;;;8.90;99.90;;;;;;5051610;28;20469;-56
2023/11/10 00:56:45;;;;;;;36.13;24.02;;;8.90;99.90;;;;;;5000336;28;20041;-56
2023/11/10 00:59:11;;;;;;;30.65;22.27;;;8.50;99.90;;;;;;5051581;28;20032;-52
2023/11/10 01:01:37;;;;;;;26.42;19.92;;;8.50;99.90;;;;;;5051701;28;20029;-55
2023/11/10 01:04:07;;;;;;;27.42;19.13;;;8.10;99.90;;;;;;5051535;28;20037;-55
2023/11/10 01:06:33;;;;;;;28.85;19.35;;;;;;;;;;5033555;28;20068;-55
2023/11/10 01:08:59;;;;;;;31.83;22.42;;;7.80;99.90;;;;;;5051406;28;20024;-52
2023/11/10 01:11:26;;;;;;;27.92;20.17;;;7.80;99.90;;;;;;4999979;28;20090;-55
2023/11/10 01:13:52;;;;;;;28.13;20.48;;;7.70;99.90;;;;;;5051404;28;20480;-56
2023/11/10 01:16:18;;;;;;;28.23;20.35;;;7.70;99.90;;;;;;5051302;28;20159;-54
2023/11/10 01:18:44;;;;;;;27.50;20.63;;;7.90;99.90;;;;;;5016207;28;20045;-53
2023/11/10 01:21:10;;;;;;;26.73;20.52;;;8.00;99.90;;;;;;5051712;28;20036;-54
2023/11/10 01:23:36;;;;;;;32.90;22.83;;;8.30;99.90;;;;;;5000314;28;20506;-55
2023/11/10 01:26:02;;;;;;;34.53;23.13;;;8.50;99.90;;;;;;5054258;28;20028;-54
2023/11/10 01:28:28;;;;;;;30.55;21.88;;;8.50;99.90;;;;;;5055151;28;20029;-54
2023/11/10 01:30:54;;;;;;;34.28;23.52;;;8.70;99.90;;;;;;5055353;28;20078;-55
2023/11/10 01:33:20;;;;;;;41.90;27.67;;;8.70;99.90;;;;;;5054861;28;20107;-55
2023/11/10 01:35:46;;;;;;;37.58;26.60;;;8.20;99.90;;;;;;5055051;28;20029;-54
2023/11/10 01:38:12;;;;;;;34.60;24.10;;;8.30;99.90;;;;;;5055312;28;20036;-55
2023/11/10 01:40:43;;;;;;;27.75;20.67;;;8.40;99.90;;;;;;5019635;28;20048;-53
2023/11/10 01:43:15;;;;;;;30.50;20.87;;;8.00;99.90;;;;;;5054842;28;20037;-55
2023/11/10 01:45:41;;;;;;;31.45;22.48;;;8.00;99.90;;;;;;5055125;28;20127;-54
2023/11/10 01:48:10;;;;;;;30.10;20.98;;;8.30;99.90;;;;;;5055060;28;20455;-55
2023/11/10 01:50:37;;;;;;;38.20;24.15;;;8.50;99.90;;;;;;5054839;28;20375;-53
2023/11/10 01:53:03;;;;;;;29.13;21.30;;;8.70;99.90;;;;;;5054705;28;20040;-55
2023/11/10 01:55:32;;;;;;;28.58;21.23;;;8.10;99.90;;;;;;5054781;28;20147;-53
2023/11/10 01:57:58;;;;;;;29.20;20.67;;;8.10;99.90;;;;;;5054526;28;20033;-56
2023/11/10 02:00:30;;;;;;;32.63;20.63;;;8.10;99.90;;;;;;5054637;28;20025;-55
2023/11/10 02:03:06;;;;;;;28.25;19.35;;;8.30;99.90;;;;;;5054590;28;20037;-54
2023/11/10 02:05:36;;;;;;;28.20;19.35;;;7.90;99.90;;;;;;5054149;28;20079;-53
2023/11/10 02:08:06;;;;;;;28.67;20.70;;;7.60;99.90;;;;;;5054542;28;20033;-55
2023/11/10 02:10:32;;;;;;;27.40;20.52;;;7.50;99.90;;;;;;5054264;28;20037;-55
2023/11/10 02:12:59;;;;;;;26.65;18.50;;;7.20;99.90;;;;;;5054227;28;20482;-55
2023/11/10 02:15:27;;;;;;;26.52;19.50;;;6.70;99.90;;;;;;5054175;28;20480;-55
2023/11/10 02:17:53;;;;;;;26.77;19.17;;;6.80;99.90;;;;;;5054172;28;20068;-56
2023/11/10 02:20:20;;;;;;;27.45;19.80;;;7.20;99.90;;;;;;5054239;28;20025;-55
2023/11/10 02:22:47;;;;;;;25.08;18.67;;;7.60;99.90;;;;;;5053856;28;20028;-54
2023/11/10 02:25:14;;;;;;;26.80;18.50;;;7.90;99.90;;;;;;4970401;28;20377;-54
2023/11/10 02:27:40;;;;;;;29.17;17.98;;;8.00;99.90;;;;;;5054409;28;20111;-54
2023/11/10 02:30:07;;;;;;;24.27;17.67;;;7.30;99.90;;;;;;5053978;28;20035;-55
2023/11/10 02:32:33;;;;;;;26.33;13.55;;;7.30;99.90;;;;;;4992229;28;20068;-56
2023/11/10 02:34:59;;;;;;;23.27;15.13;;;;;;;;;;4992192;28;20506;-54
2023/11/10 02:37:25;;;;;;;23.10;16.73;;;6.30;99.90;;;;;;4991098;28;20042;-54
2023/11/10 02:39:50;;;;;;;26.25;17.60;;;6.40;99.90;;;;;;4992297;28;20049;-53
2023/11/10 02:42:16;;;;;;;22.00;16.23;;;6.60;99.90;;;;;;4992268;28;20041;-56
2023/11/10 02:44:42;;;;;;;22.75;16.65;;;6.80;99.90;;;;;;4992036;28;20101;-54
2023/11/10 02:47:08;;;;;;;21.63;15.45;;;6.70;99.90;;;;;;4992236;28;20034;-54
2023/11/10 02:49:34;;;;;;;22.77;15.63;;;6.70;99.90;;;;;;4992035;28;20121;-55
2023/11/10 02:52:00;;;;;;;24.58;15.48;;;6.60;99.90;;;;;;4991932;28;20053;-52
2023/11/10 02:54:25;;;;;;;26.23;16.02;;;6.70;99.90;;;;;;4991741;28;20446;-54
2023/11/10 02:56:51;;;;;;;21.90;15.63;;;6.70;99.90;;;;;;4991898;28;20046;-54
2023/11/10 02:59:17;;;;;;;22.77;15.02;;;6.80;99.90;;;;;;4991797;28;20038;-56
2023/11/10 03:01:43;;;;;;;19.48;15.02;;;;;;;;;;4991863;28;20130;-55
2023/11/10 03:04:09;;;;;;;21.85;15.85;;;;;;;;;;4991741;28;20520;-53
2023/11/10 03:06:36;;;;;;;18.25;13.57;;;;;;;;;;4991619;28;20054;-53
2023/11/10 03:09:01;;;;;;;21.00;14.60;;;6.20;99.90;;;;;;4998681;28;20034;-55
2023/11/10 03:11:27;;;;;;;21.90;15.00;;;6.20;99.90;;;;;;5053209;28;20448;-53
2023/11/10 03:13:54;;;;;;;19.40;14.82;;;6.30;99.90;;;;;;5053139;28;20045;-55
2023/11/10 03:16:24;;;;;;;17.58;13.55;;;6.40;99.90;;;;;;5053312;28;20423;-54
2023/11/10 03:18:53;;;;;;;20.58;14.80;;;6.40;99.90;;;;;;5053014;28;20041;-55
2023/11/10 03:21:19;;;;;;;20.58;15.02;;;6.70;99.90;;;;;;5053081;28;20068;-56
2023/11/10 03:23:45;;;;;;;24.15;16.17;;;6.90;99.90;;;;;;5052948;28;20076;-55
2023/11/10 03:26:12;;;;;;;24.00;16.58;;;7.00;99.90;;;;;;5053426;28;20543;-52
2023/11/10 03:28:38;;;;;;;21.08;15.15;;;6.80;99.90;;;;;;5052978;28;20033;-55
2023/11/10 03:31:07;;;;;;;21.27;16.77;;;6.90;99.90;;;;;;5017667;28;20377;-55
2023/11/10 03:33:36;;;;;;;28.77;15.45;;;6.70;99.90;;;;;;5052661;28;20060;-54
2023/11/10 03:36:03;;;;;;;22.70;16.83;;;6.60;99.90;;;;;;5052841;28;20036;-54
2023/11/10 03:38:29;;;;;;;23.77;16.20;;;6.40;99.90;;;;;;5017583;28;20377;-56
2023/11/10 03:40:56;;;;;;;23.55;16.40;;;6.40;99.90;;;;;;5001200;28;20044;-56
2023/11/10 03:43:21;;;;;;;24.60;16.63;;;6.40;99.90;;;;;;5001644;28;20041;-55
2023/11/10 03:45:47;;;;;;;23.92;16.90;;;;;;;;;;5052519;28;20033;-54
2023/11/10 03:48:14;;;;;;;21.95;16.23;;;;;;;;;;5017113;28;20049;-54
2023/11/10 03:50:43;;;;;;;24.63;15.98;;;;;;;;;;5052535;28;20024;-55
2023/11/10 03:53:09;;;;;;;25.77;16.83;;;6.50;99.90;;;;;;5052678;28;20067;-54
2023/11/10 03:55:34;;;;;;;25.40;16.63;;;6.60;99.90;;;;;;5052724;28;20096;-53
2023/11/10 03:58:00;;;;;;;22.70;17.02;;;6.80;99.90;;;;;;5052315;28;20068;-52
2023/11/10 04:00:26;;;;;;;24.42;16.35;;;6.90;99.90;;;;;;5000899;28;20373;-55
2023/11/10 04:02:52;;;;;;;21.75;16.45;;;7.10;99.90;;;;;;5052117;28;20063;-55
2023/11/10 04:05:18;;;;;;;23.77;16.30;;;7.00;99.90;;;;;;5052137;28;20497;-53
2023/11/10 04:07:44;;;;;;;21.65;15.98;;;7.00;99.90;;;;;;5000829;28;20037;-55
2023/11/10 04:10:13;;;;;;;21.63;14.95;;;6.90;99.90;;;;;;5052244;28;20033;-53
2023/11/10 04:12:39;;;;;;;24.88;16.23;;;6.60;99.90;;;;;;5052196;28;20447;-55
2023/11/10 04:15:05;;;;;;;21.42;14.98;;;6.50;99.90;;;;;;4967948;28;20053;-55
2023/11/10 04:17:31;;;;;;;19.23;12.95;;;6.30;99.90;;;;;;5000413;28;20481;-53
2023/11/10 04:19:57;;;;;;;23.58;15.98;;;6.20;99.90;;;;;;5052256;28;20033;-53
2023/11/10 04:22:23;;;;;;;19.70;15.15;;;6.20;99.90;;;;;;5052138;28;20039;-52
2023/11/10 04:24:49;;;;;;;24.38;15.20;;;6.40;99.90;;;;;;5052145;28;20514;-53
2023/11/10 04:27:14;;;;;;;19.90;14.65;;;6.70;99.90;;;;;;5051709;28;20102;-53
2023/11/10 04:29:40;;;;;;;22.98;14.77;;;7.00;99.90;;;;;;4999805;28;20080;-52
2023/11/10 04:32:06;;;;;;;20.40;15.20;;;7.30;99.90;;;;;;5038177;28;20041;-55
2023/11/10 04:34:32;;;;;;;17.35;12.63;;;7.50;99.90;;;;;;4948499;28;20051;-53
2023/11/10 04:36:58;;;;;;;15.35;11.50;;;7.40;99.90;;;;;;5031852;28;20112;-54
2023/11/10 04:39:24;;;;;;;18.08;13.43;;;7.20;99.90;;;;;;5031983;28;20048;-54
2023/11/10 04:41:49;;;;;;;18.85;13.13;;;7.20;99.90;;;;;;5031874;28;20454;-55
2023/11/10 04:44:16;;;;;;;17.02;13.05;;;7.30;99.90;;;;;;5031985;28;20029;-54
2023/11/10 04:46:42;;;;;;;22.58;18.15;;;7.60;99.90;;;;;;4980661;28;20052;-53
2023/11/10 04:49:10;;;;;;;21.05;14.70;;;8.00;99.90;;;;;;5031707;28;20044;-53
2023/11/10 04:51:36;;;;;;;22.67;14.38;;;8.00;99.90;;;;;;5032003;28;20036;-55
2023/11/10 04:54:03;;;;;;;20.63;16.27;;;7.90;99.90;;;;;;5032121;28;20049;-54
2023/11/10 04:56:29;;;;;;;18.30;14.98;;;8.10;99.90;;;;;;5031812;28;20389;-52
2023/11/10 04:58:55;;;;;;;19.02;15.35;;;8.20;99.90;;;;;;5031551;28;20029;-54
2023/11/10 05:01:21;;;;;;;16.88;12.32;;;8.10;99.90;;;;;;5035628;28;20112;-54
2023/11/10 05:03:48;;;;;;;18.10;12.60;;;8.10;99.90;;;;;;5035694;28;20029;-56
2023/11/10 05:06:14;;;;;;;20.83;13.95;;;8.20;99.90;;;;;;5035532;28;20092;-54
2023/11/10 05:08:40;;;;;;;15.50;13.05;;;8.40;99.90;;;;;;5035779;28;20057;-53
2023/11/10 05:11:06;;;;;;;19.10;14.48;;;8.40;99.90;;;;;;5035561;28;20543;-55
2023/11/10 05:13:32;;;;;;;19.13;14.07;;;8.30;99.90;;;;;;4984621;28;20140;-53
2023/11/10 05:15:58;;;;;;;17.98;14.45;;;8.50;99.90;;;;;;5035658;28;20153;-56
2023/11/10 05:18:27;;;;;;;24.17;16.98;;;8.50;99.90;;;;;;5035541;28;20033;-55
2023/11/10 05:20:55;;;;;;;20.27;16.13;;;8.40;99.90;;;;;;5035280;28;20045;-51
2023/11/10 05:23:21;;;;;;;20.38;15.35;;;8.30;99.90;;;;;;5035128;28;20469;-55
2023/11/10 05:25:46;;;;;;;21.30;16.30;;;8.20;99.90;;;;;;5035618;28;20037;-53
2023/11/10 05:28:12;;;;;;;20.55;13.65;;;8.20;99.90;;;;;;5036127;28;20373;-54
2023/11/10 05:30:38;;;;;;;19.80;14.77;;;8.40;99.90;;;;;;5054987;28;20036;-55
2023/11/10 05:33:04;;;;;;;19.08;13.65;;;8.30;99.90;;;;;;5054958;28;20072;-54
2023/11/10 05:35:29;;;;;;;20.92;15.13;;;8.30;99.90;;;;;;5055214;28;20041;-54
2023/11/10 05:37:55;;;;;;;18.75;15.20;;;8.50;99.90;;;;;;5055223;28;20036;-54
2023/11/10 05:40:21;;;;;;;23.30;17.20;;;8.70;99.90;;;;;;5054327;28;20032;-56
2023/11/10 05:42:47;;;;;;;28.35;22.27;;;8.80;99.90;;;;;;5053120;28;20021;-52
2023/11/10 05:45:13;;;;;;;18.92;16.10;;;9.00;99.90;;;;;;5053386;28;20247;-54
2023/11/10 05:47:38;;;;;;;19.20;14.35;;;9.10;99.90;;;;;;5054002;28;20021;-54
2023/11/10 05:50:06;;;;;;;18.67;15.13;;;9.00;99.90;;;;;;5053495;28;20028;-52
2023/11/10 05:52:32;;;;;;;20.30;14.02;;;8.70;99.90;;;;;;4986369;28;20120;-53
2023/11/10 05:55:01;;;;;;;23.70;16.13;;;8.40;99.90;;;;;;5002027;28;20060;-53
2023/11/10 05:57:27;;;;;;;20.25;14.18;;;8.40;99.90;;;;;;5002904;28;20048;-54
2023/11/10 05:59:53;;;;;;;20.08;14.25;;;8.20;99.90;;;;;;5002039;28;20651;-54
2023/11/10 06:02:18;;;;;;;21.20;12.77;;;8.20;99.90;;;;;;5002290;28;20119;-55
2023/11/10 06:04:44;;;;;;;18.98;13.50;;;8.30;99.90;;;;;;5052034;28;20507;-52
2023/11/10 06:07:11;;;;;;;25.20;14.93;;;8.30;99.90;;;;;;5052870;28;20033;-54
2023/11/10 06:09:37;;;;;;;15.30;10.27;;;8.40;99.90;;;;;;5053518;28;20037;-52
2023/11/10 06:12:06;;;;;;;15.90;12.23;;;8.20;99.90;;;;;;5054251;28;20095;-53
2023/11/10 06:14:31;;;;;;;16.17;11.40;;;8.00;99.90;;;;;;5002562;28;20056;-53
2023/11/10 06:16:57;;;;;;;18.23;12.63;;;7.80;99.90;;;;;;5054384;28;20392;-55
2023/11/10 06:19:23;;;;;;;22.13;13.88;;;7.90;99.90;;;;;;5054277;28;20060;-55
2023/11/10 06:21:50;;;;;;;22.80;16.15;;;8.10;99.90;;;;;;5011685;28;20613;-57
2023/11/10 06:24:16;;;;;;;27.27;22.50;;;8.50;99.90;;;;;;5012001;28;20042;-54
2023/11/10 06:26:42;;;;;;;23.88;20.58;;;8.90;99.90;;;;;;5012100;28;20037;-52
2023/11/10 06:29:08;;;;;;;24.30;18.45;;;9.10;99.90;;;;;;5005702;28;20061;-52
2023/11/10 06:31:34;;;;;;;21.83;14.25;;;9.20;99.90;;;;;;4992395;28;20093;-53
2023/11/10 06:34:00;;;;;;;25.23;21.08;;;9.10;99.90;;;;;;4992303;28;20046;-52
2023/11/10 06:36:26;;;;;;;18.80;13.85;;;8.80;99.90;;;;;;4992153;28;20045;-53
2023/11/10 06:38:52;;;;;;;19.13;14.57;;;8.60;99.90;;;;;;4992326;28;20165;-54
2023/11/10 06:41:18;;;;;;;21.50;15.52;;;8.40;99.90;;;;;;4992090;28;20168;-53
2023/11/10 06:43:48;;;;;;;20.35;14.20;;;;;;;;;;4992796;28;20026;-54
2023/11/10 06:46:22;;;;;;;18.38;13.32;;;;;;;;;;4992555;28;20031;-54
2023/11/10 06:48:51;;;;;;;16.70;13.75;;;8.50;99.90;;;;;;4992541;28;20429;-55
2023/11/10 06:51:17;;;;;;;18.60;15.30;;;8.50;99.90;;;;;;4992373;28;20034;-52
2023/11/10 06:53:43;;;;;;;18.60;14.80;;;8.60;99.90;;;;;;5028288;28;20598;-54
2023/11/10 06:56:09;;;;;;;22.27;17.13;;;9.00;99.90;;;;;;5033759;28;20036;-53
2023/11/10 06:58:36;;;;;;;21.88;17.02;;;;;;;;;;5033533;28;20033;-54
2023/11/10 07:01:03;;;;;;;22.98;16.30;;;9.40;99.90;;;;;;5033982;28;20424;-52
2023/11/10 07:03:30;;;;;;;24.48;17.40;;;9.50;99.90;;;;;;5033729;28;20092;-55
2023/11/10 07:05:56;;;;;;;17.88;13.95;;;9.40;99.90;;;;;;5033252;28;20492;-54
2023/11/10 07:08:22;;;;;;;17.90;13.20;;;;;;;;;;5033270;28;20025;-54
2023/11/10 07:10:53;;;;;;;19.83;13.30;;;9.30;99.90;;;;;;5033695;28;20473;-53
2023/11/10 07:13:19;;;;;;;17.25;12.73;;;9.00;99.90;;;;;;5033724;28;20079;-54
2023/11/10 07:15:45;;;;;;;16.67;11.73;;;9.00;99.90;;;;;;5033530;28;20072;-53
2023/11/10 07:18:11;;;;;;;16.02;10.77;;;9.30;99.90;;;;;;5033232;28;20523;-52
2023/11/10 07:20:44;;;;;;;15.68;11.50;;;9.50;99.90;;;;;;5033207;28;20645;-54
2023/11/10 07:23:10;;;;;;;14.32;10.25;;;9.50;99.90;;;;;;5032875;28;20029;-54
2023/11/10 07:25:37;;;;;;;15.57;9.13;;;9.70;99.90;;;;;;5033297;28;20037;-53
2023/11/10 07:28:03;;;;;;;14.25;8.70;;;9.80;99.90;;;;;;5033049;28;20029;-53
2023/11/10 07:30:29;;;;;;;13.23;9.57;;;9.70;99.90;;;;;;5032881;28;20611;-54
2023/11/10 07:32:55;;;;;;;14.23;9.85;;;9.80;99.90;;;;;;5033328;28;20029;-52
2023/11/10 07:35:22;;;;;;;12.15;9.13;;;9.90;99.90;;;;;;5032899;28;20045;-53
2023/11/10 07:37:48;;;;;;;12.05;9.40;;;10.10;99.90;;;;;;5014190;28;20135;-52
2023/11/10 07:40:15;;;;;;;14.07;9.82;;;10.30;99.90;;;;;;5032914;28;20036;-54
2023/11/10 07:42:45;;;;;;;12.38;9.55;;;10.50;99.90;;;;;;5032777;28;20056;-54
2023/11/10 07:45:14;;;;;;;15.50;9.38;;;;;;;;;;5032776;28;20033;-56
2023/11/10 07:47:44;;;;;;;11.13;8.68;;;;;;;;;;5032648;28;20030;-52
2023/11/10 07:50:10;;;;;;;15.27;11.65;;;;;;;;;;5032848;28;20036;-54
2023/11/10 07:52:39;;;;;;;14.45;10.50;;;;;;;;;;4981742;28;20033;-54
2023/11/10 07:55:06;;;;;;;17.08;11.07;;;11.00;99.90;;;;;;5032635;28;20069;-53
2023/11/10 07:57:32;;;;;;;10.38;8.35;;;11.10;99.90;;;;;;5032458;28;20041;-53
2023/11/10 08:00:02;;;;;;;14.82;10.40;;;;;;;;;;5032644;28;20034;-54
2023/11/10 08:02:28;;;;;;;13.05;9.35;;;;;;;;;;5032463;28;20428;-53
2023/11/10 08:04:55;;;;;;;14.93;10.48;;;;;;;;;;5032228;28;20057;-52
2023/11/10 08:07:22;;;;;;;14.93;10.05;;;;;;;;;;4981514;28;20042;-53
2023/11/10 08:09:49;;;;;;;13.48;8.00;;;;;;;;;;5032259;28;20112;-55
2023/11/10 08:12:15;;;;;;;11.95;8.98;;;;;;;;;;4997539;28;20091;-54
2023/11/10 08:14:41;;;;;;;12.70;8.82;;;;;;;;;;5032450;28;20033;-55
2023/11/10 08:17:07;;;;;;;11.38;9.15;;;10.90;99.90;;;;;;5032443;28;20060;-52
2023/11/10 08:19:33;;;;;;;95.05;75.03;;;11.10;99.90;;;;;;4997114;28;20037;-53
2023/11/10 08:22:02;;;;;;;18.13;14.15;;;10.90;99.90;;;;;;5032113;28;20638;-54
2023/11/10 08:24:30;;;;;;;12.55;8.98;;;11.00;99.90;;;;;;5032094;28;20036;-52
2023/11/10 08:26:57;;;;;;;10.93;6.93;;;10.90;99.90;;;;;;5031974;28;20061;-53
2023/11/10 08:29:23;;;;;;;16.40;8.23;;;10.70;99.90;;;;;;5032308;28;20037;-55
2023/11/10 08:31:50;;;;;;;12.57;8.10;;;10.70;99.90;;;;;;5038113;28;20044;-53
2023/11/10 08:34:17;;;;;;;12.15;8.70;;;10.70;99.90;;;;;;5027170;28;20081;-54
2023/11/10 08:36:43;;;;;;;10.07;7.35;;;10.70;99.90;;;;;;5042919;28;20376;-54
2023/11/10 08:39:09;;;;;;;13.63;8.18;;;10.60;99.90;;;;;;5049246;28;20392;-54
2023/11/10 08:41:35;;;;;;;13.30;8.45;;;10.70;99.90;;;;;;5019276;28;20033;-53
2023/11/10 08:44:04;;;;;;;17.88;11.35;;;10.90;99.90;;;;;;5023031;28;20048;-53
2023/11/10 08:46:32;;;;;;;16.50;12.25;;;11.00;99.90;;;;;;5048611;28;20024;-53
2023/11/10 08:48:59;;;;;;;13.95;9.00;;;11.10;99.90;;;;;;5050603;28;20080;-53
2023/11/10 08:51:25;;;;;;;14.60;6.32;;;11.10;99.90;;;;;;5049882;28;20464;-52
2023/11/10 08:53:51;;;;;;;11.55;7.85;;;11.20;99.90;;;;;;4998006;28;20045;-53
2023/11/10 08:56:17;;;;;;;14.00;8.80;;;11.30;99.90;;;;;;5049860;28;20472;-53
2023/11/10 08:58:42;;;;;;;10.90;7.43;;;11.40;99.90;;;;;;5050489;28;20033;-53
2023/11/10 09:01:08;;;;;;;11.10;8.05;;;11.40;99.90;;;;;;5050729;28;20021;-52
2023/11/10 09:03:34;;;;;;;11.02;7.43;;;11.60;99.90;;;;;;4999087;28;20392;-52
2023/11/10 09:06:00;;;;;;;10.82;6.95;;;11.80;99.90;;;;;;5050431;28;20136;-53
2023/11/10 09:08:26;;;;;;;10.35;7.35;;;11.90;99.90;;;;;;5013741;28;20060;-52
2023/11/10 09:10:52;;;;;;;10.55;8.25;;;;;;;;;;5050152;28;20029;-52
2023/11/10 09:13:18;;;;;;;11.60;7.32;;;;;;;;;;5050540;28;20033;-54
2023/11/10 09:15:44;;;;;;;12.75;8.00;;;12.10;99.90;;;;;;5034269;28;20067;-54
2023/11/10 09:18:10;;;;;;;8.93;6.80;;;12.30;99.90;;;;;;5051500;28;20067;-52
2023/11/10 09:20:35;;;;;;;10.07;6.50;;;12.40;99.90;;;;;;5051269;28;20489;-52
2023/11/10 09:23:01;;;;;;;13.82;7.22;;;12.40;99.90;;;;;;5051014;28;20025;-55
2023/11/10 09:25:27;;;;;;;10.02;6.68;;;12.50;99.90;;;;;;5015430;28;20052;-54
2023/11/10 09:27:57;;;;;;;10.13;5.55;;;12.40;99.90;;;;;;5015232;28;20056;-54
2023/11/10 09:30:26;;;;;;;9.32;6.00;;;12.40;99.90;;;;;;5050868;28;20063;-55
2023/11/10 09:32:52;;;;;;;8.20;6.00;;;12.50;99.90;;;;;;5050780;28;20128;-52
2023/11/10 09:35:18;;;;;;;9.07;7.13;;;12.40;99.90;;;;;;5051165;28;20536;-54
2023/11/10 09:37:47;;;;;;;13.93;8.00;;;12.50;99.90;;;;;;5051540;28;20037;-53
2023/11/10 09:40:15;;;;;;;11.40;7.00;;;12.60;99.90;;;;;;5051380;28;20025;-52
2023/11/10 09:42:42;;;;;;;9.55;6.25;;;12.70;99.90;;;;;;5051449;28;20033;-52
2023/11/10 09:45:08;;;;;;;9.68;6.60;;;12.80;99.90;;;;;;5051283;28;20029;-54
2023/11/10 09:47:35;;;;;;;10.18;6.78;;;12.80;99.90;;;;;;5054905;28;20029;-54
2023/11/10 09:50:02;;;;;;;8.93;5.70;;;12.90;99.90;;;;;;5054773;28;20033;-52
2023/11/10 09:52:34;;;;;;;16.45;10.27;;;12.80;99.90;;;;;;5054592;28;20032;-55
2023/11/10 09:55:01;;;;;;;13.55;9.00;;;12.80;99.90;;;;;;5054584;28;20083;-54
2023/11/10 09:57:28;;;;;;;12.68;9.18;;;12.90;99.90;;;;;;5054914;28;20063;-54
2023/11/10 09:59:56;;;;;;;12.38;8.27;;;12.80;99.90;;;;;;5054540;28;20033;-53
2023/11/10 10:02:22;;;;;;;16.67;11.00;;;12.80;99.90;;;;;;5054634;28;20057;-53
2023/11/10 10:04:48;;;;;;;10.00;6.43;;;12.90;99.90;;;;;;5054053;28;20118;-53
2023/11/10 10:07:14;;;;;;;12.98;8.00;;;12.80;99.90;;;;;;5054725;28;20059;-52
2023/11/10 10:09:45;;;;;;;11.63;8.32;;;12.80;99.90;;;;;;5019167;28;20453;-54
2023/11/10 10:12:12;;;;;;;9.25;6.45;;;12.90;99.90;;;;;;4991861;28;20050;-52
2023/11/10 10:14:38;;;;;;;11.80;7.15;;;12.90;99.90;;;;;;4992560;28;20053;-52
2023/11/10 10:17:04;;;;;;;14.52;8.23;;;13.00;99.90;;;;;;4992553;28;20034;-55
2023/11/10 10:19:30;;;;;;;14.07;8.40;;;13.10;99.90;;;;;;4992857;28;20050;-55
2023/11/10 10:21:59;;;;;;;12.68;9.02;;;13.10;99.90;;;;;;4976216;28;20062;-53
2023/11/10 10:24:25;;;;;;;14.63;8.45;;;13.20;99.90;;;;;;4991760;28;20030;-54
2023/11/10 10:26:51;;;;;;;12.30;8.63;;;13.30;99.90;;;;;;4992322;28;20069;-53
2023/11/10 10:29:20;;;;;;;11.40;8.20;;;13.30;99.90;;;;;;4992530;28;20077;-54
2023/11/10 10:31:46;;;;;;;7.72;5.65;;;13.40;99.90;;;;;;4992473;28;20044;-52
2023/11/10 10:34:15;;;;;;;13.75;9.63;;;13.30;99.90;;;;;;4992231;28;20045;-53
2023/11/10 10:36:42;;;;;;;12.90;7.95;;;13.30;99.90;;;;;;4992275;28;20030;-54
2023/11/10 10:39:11;;;;;;;10.25;7.38;;;13.20;99.90;;;;;;4991719;28;20034;-54
2023/11/10 10:41:39;;;;;;;15.52;11.05;;;13.10;99.90;;;;;;4949155;28;20124;-54
2023/11/10 10:44:06;;;;;;;14.13;9.38;;;13.30;99.90;;;;;;5042314;28;20041;-52
2023/11/10 10:46:36;;;;;;;15.68;7.55;;;13.40;99.90;;;;;;5053235;28;20052;-54
2023/11/10 10:49:06;;;;;;;13.88;8.10;;;13.30;99.90;;;;;;5049961;28;20045;-52
2023/11/10 10:51:36;;;;;;;11.48;7.22;;;13.30;99.90;;;;;;5052126;28;20033;-54
2023/11/10 10:54:04;;;;;;;10.05;7.38;;;13.40;99.90;;;;;;5048036;28;20032;-52
2023/11/10 10:56:37;;;;;;;9.13;6.90;;;13.60;99.90;;;;;;5050088;28;20112;-51
2023/11/10 10:59:07;;;;;;;9.13;6.38;;;13.70;99.90;;;;;;4997863;28;20100;-52
2023/11/10 11:01:33;;;;;;;10.27;7.82;;;13.50;99.90;;;;;;5052860;28;20078;-53
2023/11/10 11:04:07;;;;;;;11.63;7.00;;;13.50;99.90;;;;;;5053911;28;20384;-52
2023/11/10 11:07:11;;;;;;;12.35;6.88;;;13.50;99.90;;;;;;5053195;28;20572;-53
2023/11/10 11:10:18;;;;;;;13.85;7.10;;;13.60;99.90;;;;;;5053306;28;20037;-52
2023/11/10 11:13:11;;;;;;;11.05;7.95;;;13.70;99.90;;;;;;5053297;28;20040;-53
2023/11/10 11:15:56;;;;;;;12.35;7.65;;;13.70;99.90;;;;;;5017626;28;20041;-52
2023/11/10 11:18:36;;;;;;;11.32;7.80;;;13.70;99.90;;;;;;5001863;28;20049;-52
2023/11/10 11:21:02;;;;;;;10.30;7.72;;;13.60;99.90;;;;;;5053459;28;20037;-53
2023/11/10 11:23:35;;;;;;;7.80;5.03;;;13.60;99.90;;;;;;5000672;28;20116;-51
2023/11/10 11:26:04;;;;;;;12.57;8.15;;;13.40;99.90;;;;;;5034400;28;20443;-53
2023/11/10 11:28:39;;;;;;;9.48;7.55;;;13.40;99.90;;;;;;5052295;28;20029;-53
2023/11/10 11:31:09;;;;;;;12.38;7.97;;;;;;;;;;5014655;28;20036;-53
2023/11/10 11:33:45;;;;;;;10.88;7.57;;;13.50;99.90;;;;;;5052084;28;20477;-53
2023/11/10 11:36:14;;;;;;;13.55;7.45;;;13.70;99.90;;;;;;4989035;28;20074;-54
2023/11/10 11:38:42;;;;;;;10.43;7.78;;;13.60;99.90;;;;;;4990371;28;20128;-53
2023/11/10 11:41:08;;;;;;;13.13;7.97;;;13.60;99.90;;;;;;4990287;28;20109;-53
2023/11/10 11:43:34;;;;;;;15.60;8.98;;;;;;;;;;4990897;28;20560;-54
2023/11/10 11:46:03;;;;;;;22.38;14.30;;;;;;;;;;4958712;28;20097;-54
2023/11/10 11:48:35;;;;;;;18.67;12.05;;;;;;;;;;4990928;28;20034;-54
2023/11/10 11:51:04;;;;;;;19.60;10.90;;;14.00;99.90;;;;;;4990796;28;20042;-54
2023/11/10 11:53:30;;;;;;;16.27;10.00;;;14.00;99.90;;;;;;4990775;28;20042;-53
2023/11/10 11:55:55;;;;;;;14.18;10.05;;;14.00;99.90;;;;;;4990761;28;20081;-53
2023/11/10 11:58:22;;;;;;;13.75;8.25;;;14.00;99.90;;;;;;4990875;28;20026;-54
2023/11/10 12:00:48;;;;;;;15.20;9.38;;;14.00;99.90;;;;;;4990675;28;20023;-53
2023/11/10 12:03:14;;;;;;;15.50;8.68;;;14.10;99.90;;;;;;4958522;28;20046;-53
2023/11/10 12:05:43;;;;;;;14.55;8.15;;;;;;;;;;4990528;28;20492;-53
2023/11/10 12:08:10;;;;;;;13.63;8.80;;;14.20;99.90;;;;;;5046593;28;20543;-53
2023/11/10 12:10:38;;;;;;;15.25;8.23;;;14.20;99.90;;;;;;5052267;28;20115;-53
2023/11/10 12:13:08;;;;;;;15.07;9.05;;;13.90;99.90;;;;;;5052100;28;20039;-53
2023/11/10 12:15:34;;;;;;;19.02;9.50;;;13.90;99.90;;;;;;5013883;28;20090;-53
2023/11/10 12:18:01;;;;;;;20.70;12.00;;;;;;;;;;5016804;28;20033;-54
2023/11/10 12:20:30;;;;;;;19.38;11.57;;;;;;;;;;5000983;28;20047;-54
2023/11/10 12:22:57;;;;;;;17.85;11.07;;;;;;;;;;5051968;28;20435;-54
2023/11/10 12:25:26;;;;;;;12.93;7.93;;;;;;;;;;5052076;28;20021;-53
2023/11/10 12:27:53;;;;;;;12.80;6.88;;;;;;;;;;5052087;28;20599;-54
2023/11/10 12:30:20;;;;;;;12.75;5.97;;;14.00;99.90;;;;;;5051899;28;20495;-53
2023/11/10 12:32:48;;;;;;;8.98;5.40;;;14.00;99.90;;;;;;5051733;28;20473;-53
2023/11/10 12:35:15;;;;;;;16.23;8.82;;;13.70;99.90;;;;;;5051814;28;20136;-53
2023/11/10 12:37:41;;;;;;;14.02;8.27;;;13.80;99.90;;;;;;5051830;28;20387;-53
2023/11/10 12:40:30;;;;;;;12.23;8.32;;;;;;;;;;5051896;28;20720;-53
2023/11/10 12:42:58;;;;;;;10.90;7.15;;;;;;;;;;4990013;28;20671;-54
2023/11/10 12:45:25;;;;;;;13.07;6.80;;;14.00;99.90;;;;;;4990189;28;20105;-53
2023/11/10 12:47:52;;;;;;;15.05;8.35;;;13.80;99.90;;;;;;4990047;28;20131;-52